Cuffley, United Kingdom
Current Conditions -  °F | °C
As of 9:20 AM on Thursday 23 Oct 2014 (Local Time) from EGGW Reporting Station
Broken Clouds Broken Clouds  
Wind Chill: 11°   Ceiling: 1500
Heat Index: 11°   Visibility: 6mi
Dew Point: 10°   Wind: 10mph
Humidity: 94%   Direction: 210°SSW
Pressure: 30.12"   Gusts: NA
Location:  51.71°N, 0.11°W
Report Text: EGGW 230820Z 21009KT 170V230 9999 BKN015 11/10 Q1020
Loading
Personal Weather Stations






























Interactive Weather Map
Tropical Storm Tracking
New forecast layout! Learn more

10-Day Weather Forecast

Advertisements
Track Severe Weather on mobile